sensor_id;sensor_type;location;lat;lon;timestamp;P1;durP1;ratioP1;P2;durP2;ratioP2
26034;SDS011;13809;48.632;11.576;2024-01-06T00:02:39;8.97;;;7.97;;
26034;SDS011;13809;48.632;11.576;2024-01-06T00:07:42;8.77;;;7.80;;
26034;SDS011;13809;48.632;11.576;2024-01-06T00:12:45;8.60;;;7.70;;
26034;SDS011;13809;48.632;11.576;2024-01-06T00:17:51;7.90;;;7.10;;
26034;SDS011;13809;48.632;11.576;2024-01-06T00:22:54;8.53;;;7.73;;
26034;SDS011;13809;48.632;11.576;2024-01-06T00:28:00;6.73;;;6.13;;
26034;SDS011;13809;48.632;11.576;2024-01-06T00:33:04;7.73;;;7.00;;
26034;SDS011;13809;48.632;11.576;2024-01-06T00:38:08;7.57;;;6.80;;
26034;SDS011;13809;48.632;11.576;2024-01-06T00:43:11;9.50;;;8.57;;
26034;SDS011;13809;48.632;11.576;2024-01-06T00:48:16;9.00;;;8.13;;
26034;SDS011;13809;48.632;11.576;2024-01-06T00:53:19;7.93;;;7.20;;
26034;SDS011;13809;48.632;11.576;2024-01-06T00:58:22;7.70;;;7.00;;
26034;SDS011;13809;48.632;11.576;2024-01-06T01:03:26;6.87;;;6.27;;
26034;SDS011;13809;48.632;11.576;2024-01-06T01:08:30;7.13;;;6.53;;
26034;SDS011;13809;48.632;11.576;2024-01-06T01:13:33;7.27;;;6.57;;
26034;SDS011;13809;48.632;11.576;2024-01-06T01:18:38;7.27;;;6.67;;
26034;SDS011;13809;48.632;11.576;2024-01-06T01:23:41;7.60;;;7.00;;
26034;SDS011;13809;48.632;11.576;2024-01-06T01:28:44;7.37;;;6.70;;
26034;SDS011;13809;48.632;11.576;2024-01-06T01:33:49;7.10;;;6.50;;
26034;SDS011;13809;48.632;11.576;2024-01-06T01:38:52;5.00;;;4.60;;
26034;SDS011;13809;48.632;11.576;2024-01-06T01:43:55;6.60;;;6.07;;
26034;SDS011;13809;48.632;11.576;2024-01-06T01:49:02;7.07;;;6.47;;
26034;SDS011;13809;48.632;11.576;2024-01-06T01:54:06;6.57;;;6.07;;
26034;SDS011;13809;48.632;11.576;2024-01-06T01:59:10;7.80;;;7.10;;
26034;SDS011;13809;48.632;11.576;2024-01-06T02:04:16;6.20;;;5.60;;
26034;SDS011;13809;48.632;11.576;2024-01-06T02:09:19;7.00;;;6.37;;
26034;SDS011;13809;48.632;11.576;2024-01-06T02:14:24;7.60;;;6.90;;
26034;SDS011;13809;48.632;11.576;2024-01-06T02:19:29;6.60;;;6.10;;
26034;SDS011;13809;48.632;11.576;2024-01-06T02:24:33;5.57;;;5.17;;
26034;SDS011;13809;48.632;11.576;2024-01-06T02:29:37;4.80;;;4.40;;
26034;SDS011;13809;48.632;11.576;2024-01-06T02:34:40;5.40;;;5.00;;
26034;SDS011;13809;48.632;11.576;2024-01-06T02:39:45;5.60;;;5.10;;
26034;SDS011;13809;48.632;11.576;2024-01-06T02:44:49;5.57;;;5.17;;
26034;SDS011;13809;48.632;11.576;2024-01-06T02:49:52;6.40;;;5.90;;
26034;SDS011;13809;48.632;11.576;2024-01-06T02:54:57;6.67;;;6.17;;
26034;SDS011;13809;48.632;11.576;2024-01-06T03:00:02;7.13;;;6.63;;
26034;SDS011;13809;48.632;11.576;2024-01-06T03:05:05;7.20;;;6.60;;
26034;SDS011;13809;48.632;11.576;2024-01-06T03:10:11;7.27;;;6.67;;
26034;SDS011;13809;48.632;11.576;2024-01-06T03:15:14;8.27;;;7.57;;
26034;SDS011;13809;48.632;11.576;2024-01-06T03:20:18;9.23;;;8.43;;
26034;SDS011;13809;48.632;11.576;2024-01-06T03:25:22;9.70;;;8.93;;
26034;SDS011;13809;48.632;11.576;2024-01-06T03:30:26;9.17;;;8.40;;
26034;SDS011;13809;48.632;11.576;2024-01-06T03:35:29;8.53;;;7.83;;
26034;SDS011;13809;48.632;11.576;2024-01-06T03:40:33;7.27;;;6.63;;
26034;SDS011;13809;48.632;11.576;2024-01-06T03:45:37;9.10;;;8.30;;
26034;SDS011;13809;48.632;11.576;2024-01-06T03:50:40;9.27;;;8.47;;
26034;SDS011;13809;48.632;11.576;2024-01-06T03:55:44;8.07;;;7.37;;
26034;SDS011;13809;48.632;11.576;2024-01-06T04:00:47;7.10;;;6.40;;
26034;SDS011;13809;48.632;11.576;2024-01-06T04:05:51;6.27;;;5.40;;
26034;SDS011;13809;48.632;11.576;2024-01-06T04:10:55;6.97;;;5.57;;
26034;SDS011;13809;48.632;11.576;2024-01-06T04:15:58;6.83;;;5.30;;
26034;SDS011;13809;48.632;11.576;2024-01-06T04:21:02;6.00;;;5.50;;
26034;SDS011;13809;48.632;11.576;2024-01-06T04:26:07;5.93;;;5.33;;
26034;SDS011;13809;48.632;11.576;2024-01-06T04:31:10;5.83;;;5.17;;
26034;SDS011;13809;48.632;11.576;2024-01-06T04:36:14;5.00;;;4.50;;
26034;SDS011;13809;48.632;11.576;2024-01-06T04:41:19;5.23;;;4.73;;
26034;SDS011;13809;48.632;11.576;2024-01-06T04:46:22;5.90;;;5.40;;
26034;SDS011;13809;48.632;11.576;2024-01-06T04:51:25;6.87;;;6.13;;
26034;SDS011;13809;48.632;11.576;2024-01-06T04:56:30;6.80;;;6.17;;
26034;SDS011;13809;48.632;11.576;2024-01-06T05:01:37;6.10;;;5.50;;
26034;SDS011;13809;48.632;11.576;2024-01-06T05:06:40;7.37;;;5.00;;
26034;SDS011;13809;48.632;11.576;2024-01-06T05:11:45;4.60;;;3.83;;
26034;SDS011;13809;48.632;11.576;2024-01-06T05:16:48;5.00;;;4.07;;
26034;SDS011;13809;48.632;11.576;2024-01-06T05:21:51;3.90;;;3.00;;
26034;SDS011;13809;48.632;11.576;2024-01-06T05:26:56;3.17;;;2.80;;
26034;SDS011;13809;48.632;11.576;2024-01-06T05:31:59;3.57;;;2.80;;
26034;SDS011;13809;48.632;11.576;2024-01-06T05:37:02;3.60;;;2.67;;
26034;SDS011;13809;48.632;11.576;2024-01-06T05:42:08;3.27;;;2.70;;
26034;SDS011;13809;48.632;11.576;2024-01-06T05:47:13;3.27;;;2.73;;
26034;SDS011;13809;48.632;11.576;2024-01-06T05:52:16;3.27;;;2.60;;
26034;SDS011;13809;48.632;11.576;2024-01-06T05:57:21;3.07;;;2.40;;
26034;SDS011;13809;48.632;11.576;2024-01-06T06:02:24;3.27;;;2.40;;
26034;SDS011;13809;48.632;11.576;2024-01-06T06:07:27;4.27;;;2.97;;
26034;SDS011;13809;48.632;11.576;2024-01-06T06:12:31;3.63;;;2.70;;
26034;SDS011;13809;48.632;11.576;2024-01-06T06:17:35;3.43;;;2.40;;
26034;SDS011;13809;48.632;11.576;2024-01-06T06:22:38;3.73;;;2.40;;
26034;SDS011;13809;48.632;11.576;2024-01-06T06:27:42;2.60;;;2.20;;
26034;SDS011;13809;48.632;11.576;2024-01-06T06:32:46;3.37;;;2.60;;
26034;SDS011;13809;48.632;11.576;2024-01-06T06:37:49;3.57;;;2.07;;
26034;SDS011;13809;48.632;11.576;2024-01-06T06:42:53;3.70;;;2.47;;
26034;SDS011;13809;48.632;11.576;2024-01-06T06:47:57;4.77;;;3.13;;
26034;SDS011;13809;48.632;11.576;2024-01-06T06:53:00;3.23;;;2.70;;
26034;SDS011;13809;48.632;11.576;2024-01-06T06:58:04;4.13;;;3.17;;
26034;SDS011;13809;48.632;11.576;2024-01-06T07:03:08;3.87;;;2.80;;
26034;SDS011;13809;48.632;11.576;2024-01-06T07:08:11;2.80;;;2.60;;
26034;SDS011;13809;48.632;11.576;2024-01-06T07:13:17;5.33;;;3.07;;
26034;SDS011;13809;48.632;11.576;2024-01-06T07:18:21;3.93;;;3.17;;
26034;SDS011;13809;48.632;11.576;2024-01-06T07:23:26;3.50;;;2.97;;
26034;SDS011;13809;48.632;11.576;2024-01-06T07:28:31;5.00;;;4.40;;
26034;SDS011;13809;48.632;11.576;2024-01-06T07:33:34;4.73;;;4.23;;
26034;SDS011;13809;48.632;11.576;2024-01-06T07:38:37;5.37;;;3.27;;
26034;SDS011;13809;48.632;11.576;2024-01-06T07:43:42;5.37;;;4.30;;
26034;SDS011;13809;48.632;11.576;2024-01-06T07:48:45;8.43;;;7.00;;
26034;SDS011;13809;48.632;11.576;2024-01-06T07:53:48;7.13;;;5.37;;
26034;SDS011;13809;48.632;11.576;2024-01-06T07:58:53;5.07;;;3.40;;
26034;SDS011;13809;48.632;11.576;2024-01-06T08:03:56;5.07;;;3.60;;
26034;SDS011;13809;48.632;11.576;2024-01-06T08:09:00;4.13;;;2.60;;
26034;SDS011;13809;48.632;11.576;2024-01-06T08:14:06;7.10;;;6.40;;
26034;SDS011;13809;48.632;11.576;2024-01-06T08:19:09;5.93;;;5.37;;
26034;SDS011;13809;48.632;11.576;2024-01-06T08:24:12;6.80;;;5.83;;
26034;SDS011;13809;48.632;11.576;2024-01-06T08:29:17;5.50;;;3.90;;
26034;SDS011;13809;48.632;11.576;2024-01-06T08:34:21;3.60;;;2.80;;
26034;SDS011;13809;48.632;11.576;2024-01-06T08:39:24;4.03;;;2.77;;
26034;SDS011;13809;48.632;11.576;2024-01-06T08:44:29;5.50;;;2.57;;
26034;SDS011;13809;48.632;11.576;2024-01-06T08:49:32;3.33;;;2.50;;
26034;SDS011;13809;48.632;11.576;2024-01-06T08:54:36;4.30;;;2.90;;
26034;SDS011;13809;48.632;11.576;2024-01-06T08:59:40;2.73;;;2.50;;
26034;SDS011;13809;48.632;11.576;2024-01-06T09:04:44;3.97;;;3.03;;
26034;SDS011;13809;48.632;11.576;2024-01-06T09:09:47;5.87;;;4.80;;
26034;SDS011;13809;48.632;11.576;2024-01-06T09:14:52;5.57;;;4.50;;
26034;SDS011;13809;48.632;11.576;2024-01-06T09:19:55;5.13;;;4.00;;
26034;SDS011;13809;48.632;11.576;2024-01-06T09:24:58;3.37;;;3.07;;
26034;SDS011;13809;48.632;11.576;2024-01-06T09:30:03;6.30;;;4.63;;
26034;SDS011;13809;48.632;11.576;2024-01-06T09:35:07;12.70;;;6.30;;
26034;SDS011;13809;48.632;11.576;2024-01-06T09:40:11;5.97;;;4.17;;
26034;SDS011;13809;48.632;11.576;2024-01-06T09:45:17;6.67;;;5.10;;
26034;SDS011;13809;48.632;11.576;2024-01-06T09:50:21;43.40;;;22.60;;
26034;SDS011;13809;48.632;11.576;2024-01-06T09:55:25;12.67;;;8.37;;
26034;SDS011;13809;48.632;11.576;2024-01-06T10:00:30;7.70;;;5.13;;
26034;SDS011;13809;48.632;11.576;2024-01-06T10:05:33;8.00;;;4.37;;
26034;SDS011;13809;48.632;11.576;2024-01-06T10:10:37;7.43;;;4.30;;
26034;SDS011;13809;48.632;11.576;2024-01-06T10:15:42;4.97;;;4.10;;
26034;SDS011;13809;48.632;11.576;2024-01-06T10:20:45;4.97;;;3.93;;
26034;SDS011;13809;48.632;11.576;2024-01-06T10:25:48;5.03;;;3.90;;
26034;SDS011;13809;48.632;11.576;2024-01-06T10:31:00;4.40;;;3.60;;
26034;SDS011;13809;48.632;11.576;2024-01-06T10:36:03;4.00;;;3.60;;
26034;SDS011;13809;48.632;11.576;2024-01-06T10:41:07;4.60;;;3.83;;
26034;SDS011;13809;48.632;11.576;2024-01-06T10:46:13;4.00;;;3.10;;
26034;SDS011;13809;48.632;11.576;2024-01-06T10:51:18;5.00;;;3.93;;
26034;SDS011;13809;48.632;11.576;2024-01-06T10:56:24;3.83;;;3.43;;
26034;SDS011;13809;48.632;11.576;2024-01-06T11:01:29;4.87;;;3.90;;
26034;SDS011;13809;48.632;11.576;2024-01-06T11:06:32;4.67;;;3.93;;
26034;SDS011;13809;48.632;11.576;2024-01-06T11:11:37;5.37;;;4.00;;
26034;SDS011;13809;48.632;11.576;2024-01-06T11:16:43;4.23;;;3.80;;
26034;SDS011;13809;48.632;11.576;2024-01-06T11:21:46;4.43;;;3.40;;
26034;SDS011;13809;48.632;11.576;2024-01-06T11:26:50;4.07;;;3.67;;
26034;SDS011;13809;48.632;11.576;2024-01-06T11:37:25;5.50;;;4.20;;
26034;SDS011;13809;48.632;11.576;2024-01-06T11:42:39;6.17;;;4.23;;
26034;SDS011;13809;48.632;11.576;2024-01-06T11:47:46;4.43;;;3.60;;
26034;SDS011;13809;48.632;11.576;2024-01-06T11:52:50;4.87;;;3.90;;
26034;SDS011;13809;48.632;11.576;2024-01-06T11:57:57;5.27;;;4.57;;
26034;SDS011;13809;48.632;11.576;2024-01-06T12:03:04;4.90;;;3.80;;
26034;SDS011;13809;48.632;11.576;2024-01-06T12:08:08;4.57;;;4.17;;
26034;SDS011;13809;48.632;11.576;2024-01-06T12:13:11;4.90;;;3.90;;
26034;SDS011;13809;48.632;11.576;2024-01-06T12:18:20;5.17;;;3.80;;
26034;SDS011;13809;48.632;11.576;2024-01-06T12:23:24;5.10;;;3.50;;
26034;SDS011;13809;48.632;11.576;2024-01-06T12:28:29;5.63;;;3.80;;
26034;SDS011;13809;48.632;11.576;2024-01-06T12:33:33;4.27;;;3.63;;
26034;SDS011;13809;48.632;11.576;2024-01-06T12:38:38;5.67;;;3.67;;
26034;SDS011;13809;48.632;11.576;2024-01-06T12:43:44;4.40;;;3.20;;
26034;SDS011;13809;48.632;11.576;2024-01-06T12:48:48;3.97;;;3.50;;
26034;SDS011;13809;48.632;11.576;2024-01-06T12:53:52;4.10;;;3.50;;
26034;SDS011;13809;48.632;11.576;2024-01-06T12:58:55;4.13;;;3.30;;
26034;SDS011;13809;48.632;11.576;2024-01-06T13:04:00;3.87;;;3.30;;
26034;SDS011;13809;48.632;11.576;2024-01-06T13:09:03;3.63;;;3.27;;
26034;SDS011;13809;48.632;11.576;2024-01-06T13:14:08;5.97;;;4.60;;
26034;SDS011;13809;48.632;11.576;2024-01-06T13:19:12;4.93;;;3.60;;
26034;SDS011;13809;48.632;11.576;2024-01-06T13:24:15;4.43;;;3.60;;
26034;SDS011;13809;48.632;11.576;2024-01-06T13:29:19;4.83;;;3.37;;
26034;SDS011;13809;48.632;11.576;2024-01-06T13:34:23;5.73;;;3.40;;
26034;SDS011;13809;48.632;11.576;2024-01-06T13:39:26;4.37;;;3.43;;
26034;SDS011;13809;48.632;11.576;2024-01-06T13:44:30;3.67;;;3.37;;
26034;SDS011;13809;48.632;11.576;2024-01-06T13:49:34;4.20;;;3.57;;
26034;SDS011;13809;48.632;11.576;2024-01-06T13:54:37;4.53;;;3.20;;
26034;SDS011;13809;48.632;11.576;2024-01-06T13:59:41;3.93;;;3.50;;
26034;SDS011;13809;48.632;11.576;2024-01-06T14:04:45;3.77;;;3.20;;
26034;SDS011;13809;48.632;11.576;2024-01-06T14:09:49;3.30;;;3.00;;
26034;SDS011;13809;48.632;11.576;2024-01-06T14:14:52;4.53;;;3.30;;
26034;SDS011;13809;48.632;11.576;2024-01-06T14:19:57;3.53;;;3.00;;
26034;SDS011;13809;48.632;11.576;2024-01-06T14:25:00;3.60;;;2.80;;
26034;SDS011;13809;48.632;11.576;2024-01-06T14:30:07;5.67;;;4.83;;
26034;SDS011;13809;48.632;11.576;2024-01-06T14:35:12;3.40;;;3.10;;
26034;SDS011;13809;48.632;11.576;2024-01-06T14:40:17;3.27;;;2.97;;
26034;SDS011;13809;48.632;11.576;2024-01-06T14:45:20;3.43;;;2.60;;
26034;SDS011;13809;48.632;11.576;2024-01-06T14:50:25;2.73;;;2.53;;
26034;SDS011;13809;48.632;11.576;2024-01-06T14:55:29;3.37;;;2.90;;
26034;SDS011;13809;48.632;11.576;2024-01-06T15:00:32;2.67;;;2.43;;
26034;SDS011;13809;48.632;11.576;2024-01-06T15:05:36;3.53;;;2.37;;
26034;SDS011;13809;48.632;11.576;2024-01-06T15:10:40;4.00;;;2.70;;
26034;SDS011;13809;48.632;11.576;2024-01-06T15:15:43;3.50;;;2.70;;
26034;SDS011;13809;48.632;11.576;2024-01-06T15:20:48;3.23;;;2.90;;
26034;SDS011;13809;48.632;11.576;2024-01-06T15:25:51;2.83;;;2.63;;
26034;SDS011;13809;48.632;11.576;2024-01-06T15:30:54;4.73;;;2.87;;
26034;SDS011;13809;48.632;11.576;2024-01-06T15:36:00;4.50;;;2.90;;
26034;SDS011;13809;48.632;11.576;2024-01-06T15:41:04;5.00;;;4.50;;
26034;SDS011;13809;48.632;11.576;2024-01-06T15:46:08;3.70;;;3.30;;
26034;SDS011;13809;48.632;11.576;2024-01-06T15:51:12;5.13;;;4.07;;
26034;SDS011;13809;48.632;11.576;2024-01-06T15:56:16;5.67;;;4.63;;
26034;SDS011;13809;48.632;11.576;2024-01-06T16:01:19;4.23;;;3.83;;
26034;SDS011;13809;48.632;11.576;2024-01-06T16:06:25;4.83;;;4.37;;
26034;SDS011;13809;48.632;11.576;2024-01-06T16:11:28;6.90;;;6.07;;
26034;SDS011;13809;48.632;11.576;2024-01-06T16:16:31;7.53;;;6.77;;
26034;SDS011;13809;48.632;11.576;2024-01-06T16:21:36;13.03;;;11.53;;
26034;SDS011;13809;48.632;11.576;2024-01-06T16:26:39;8.60;;;7.50;;
26034;SDS011;13809;48.632;11.576;2024-01-06T16:31:42;8.93;;;7.83;;
26034;SDS011;13809;48.632;11.576;2024-01-06T16:36:47;17.17;;;15.37;;
26034;SDS011;13809;48.632;11.576;2024-01-06T16:41:50;10.03;;;7.97;;
26034;SDS011;13809;48.632;11.576;2024-01-06T16:46:54;6.33;;;5.60;;
26034;SDS011;13809;48.632;11.576;2024-01-06T16:52:00;6.63;;;6.03;;
26034;SDS011;13809;48.632;11.576;2024-01-06T16:57:04;6.50;;;5.90;;
26034;SDS011;13809;48.632;11.576;2024-01-06T17:02:07;6.60;;;6.00;;
26034;SDS011;13809;48.632;11.576;2024-01-06T17:07:12;5.43;;;4.93;;
26034;SDS011;13809;48.632;11.576;2024-01-06T17:12:20;6.00;;;5.50;;
26034;SDS011;13809;48.632;11.576;2024-01-06T17:17:23;5.33;;;4.93;;
26034;SDS011;13809;48.632;11.576;2024-01-06T17:22:28;5.50;;;4.97;;
26034;SDS011;13809;48.632;11.576;2024-01-06T17:27:31;6.33;;;5.67;;
26034;SDS011;13809;48.632;11.576;2024-01-06T17:32:34;5.53;;;4.90;;
26034;SDS011;13809;48.632;11.576;2024-01-06T17:37:39;5.97;;;5.10;;
26034;SDS011;13809;48.632;11.576;2024-01-06T17:42:42;6.20;;;5.20;;
26034;SDS011;13809;48.632;11.576;2024-01-06T17:47:46;5.60;;;5.10;;
26034;SDS011;13809;48.632;11.576;2024-01-06T17:52:52;6.60;;;6.03;;
26034;SDS011;13809;48.632;11.576;2024-01-06T17:57:56;7.83;;;7.07;;
26034;SDS011;13809;48.632;11.576;2024-01-06T18:02:59;11.40;;;9.53;;
26034;SDS011;13809;48.632;11.576;2024-01-06T18:08:06;6.97;;;6.27;;
26034;SDS011;13809;48.632;11.576;2024-01-06T18:13:09;6.03;;;5.43;;
26034;SDS011;13809;48.632;11.576;2024-01-06T18:18:12;9.83;;;8.67;;
26034;SDS011;13809;48.632;11.576;2024-01-06T18:23:17;14.43;;;12.13;;
26034;SDS011;13809;48.632;11.576;2024-01-06T18:28:20;7.30;;;6.60;;
26034;SDS011;13809;48.632;11.576;2024-01-06T18:33:25;6.40;;;5.80;;
26034;SDS011;13809;48.632;11.576;2024-01-06T18:38:30;5.77;;;5.23;;
26034;SDS011;13809;48.632;11.576;2024-01-06T18:43:33;6.47;;;5.87;;
26034;SDS011;13809;48.632;11.576;2024-01-06T18:48:36;6.57;;;5.97;;
26034;SDS011;13809;48.632;11.576;2024-01-06T18:53:41;6.73;;;6.13;;
26034;SDS011;13809;48.632;11.576;2024-01-06T18:58:44;6.93;;;5.60;;
26034;SDS011;13809;48.632;11.576;2024-01-06T19:03:48;6.03;;;5.43;;
26034;SDS011;13809;48.632;11.576;2024-01-06T19:08:53;6.40;;;5.70;;
26034;SDS011;13809;48.632;11.576;2024-01-06T19:13:56;6.80;;;6.10;;
26034;SDS011;13809;48.632;11.576;2024-01-06T19:18:59;6.37;;;5.77;;
26034;SDS011;13809;48.632;11.576;2024-01-06T19:24:06;6.10;;;5.50;;
26034;SDS011;13809;48.632;11.576;2024-01-06T19:29:09;7.60;;;6.80;;
26034;SDS011;13809;48.632;11.576;2024-01-06T19:34:12;6.90;;;6.20;;
26034;SDS011;13809;48.632;11.576;2024-01-06T19:39:17;7.53;;;6.13;;
26034;SDS011;13809;48.632;11.576;2024-01-06T19:44:20;6.70;;;6.10;;
26034;SDS011;13809;48.632;11.576;2024-01-06T19:49:23;6.80;;;6.13;;
26034;SDS011;13809;48.632;11.576;2024-01-06T19:54:28;6.83;;;6.23;;
26034;SDS011;13809;48.632;11.576;2024-01-06T19:59:33;7.10;;;6.40;;
26034;SDS011;13809;48.632;11.576;2024-01-06T20:04:37;6.50;;;6.00;;
26034;SDS011;13809;48.632;11.576;2024-01-06T20:09:44;7.10;;;6.40;;
26034;SDS011;13809;48.632;11.576;2024-01-06T20:14:47;6.93;;;6.33;;
26034;SDS011;13809;48.632;11.576;2024-01-06T20:19:53;8.20;;;7.47;;
26034;SDS011;13809;48.632;11.576;2024-01-06T20:24:57;9.97;;;8.97;;
26034;SDS011;13809;48.632;11.576;2024-01-06T20:30:03;10.07;;;9.07;;
26034;SDS011;13809;48.632;11.576;2024-01-06T20:35:07;7.20;;;6.50;;
26034;SDS011;13809;48.632;11.576;2024-01-06T20:40:12;7.00;;;6.27;;
26034;SDS011;13809;48.632;11.576;2024-01-06T20:45:15;6.90;;;6.30;;
26034;SDS011;13809;48.632;11.576;2024-01-06T20:50:19;6.67;;;6.17;;
26034;SDS011;13809;48.632;11.576;2024-01-06T20:55:24;7.63;;;7.00;;
26034;SDS011;13809;48.632;11.576;2024-01-06T21:00:27;7.63;;;6.43;;
26034;SDS011;13809;48.632;11.576;2024-01-06T21:05:35;7.50;;;6.73;;
26034;SDS011;13809;48.632;11.576;2024-01-06T21:10:40;7.53;;;6.83;;
26034;SDS011;13809;48.632;11.576;2024-01-06T21:15:43;6.73;;;6.03;;
26034;SDS011;13809;48.632;11.576;2024-01-06T21:20:46;7.13;;;6.43;;
26034;SDS011;13809;48.632;11.576;2024-01-06T21:25:51;6.93;;;6.30;;
26034;SDS011;13809;48.632;11.576;2024-01-06T21:30:54;6.27;;;5.60;;
26034;SDS011;13809;48.632;11.576;2024-01-06T21:35:58;7.00;;;6.30;;
26034;SDS011;13809;48.632;11.576;2024-01-06T21:41:03;8.23;;;6.20;;
26034;SDS011;13809;48.632;11.576;2024-01-06T21:46:08;8.00;;;7.20;;
26034;SDS011;13809;48.632;11.576;2024-01-06T21:51:12;7.47;;;6.77;;
26034;SDS011;13809;48.632;11.576;2024-01-06T21:56:17;7.10;;;6.40;;
26034;SDS011;13809;48.632;11.576;2024-01-06T22:01:20;6.87;;;6.17;;
26034;SDS011;13809;48.632;11.576;2024-01-06T22:06:23;6.80;;;6.20;;
26034;SDS011;13809;48.632;11.576;2024-01-06T22:11:28;6.40;;;5.90;;
26034;SDS011;13809;48.632;11.576;2024-01-06T22:16:31;6.67;;;6.07;;
26034;SDS011;13809;48.632;11.576;2024-01-06T22:21:38;6.33;;;5.73;;
26034;SDS011;13809;48.632;11.576;2024-01-06T22:26:46;6.23;;;5.63;;
26034;SDS011;13809;48.632;11.576;2024-01-06T22:31:50;6.50;;;5.90;;
26034;SDS011;13809;48.632;11.576;2024-01-06T22:36:53;5.83;;;5.33;;
26034;SDS011;13809;48.632;11.576;2024-01-06T22:42:00;6.10;;;5.50;;
26034;SDS011;13809;48.632;11.576;2024-01-06T22:47:03;5.93;;;5.43;;
26034;SDS011;13809;48.632;11.576;2024-01-06T22:52:06;5.67;;;5.17;;
26034;SDS011;13809;48.632;11.576;2024-01-06T22:57:11;5.70;;;5.20;;
26034;SDS011;13809;48.632;11.576;2024-01-06T23:02:14;5.67;;;5.17;;
26034;SDS011;13809;48.632;11.576;2024-01-06T23:07:17;5.90;;;5.37;;
26034;SDS011;13809;48.632;11.576;2024-01-06T23:12:22;6.00;;;5.50;;
26034;SDS011;13809;48.632;11.576;2024-01-06T23:17:25;5.77;;;5.27;;
26034;SDS011;13809;48.632;11.576;2024-01-06T23:22:28;6.50;;;5.63;;
26034;SDS011;13809;48.632;11.576;2024-01-06T23:27:32;5.60;;;5.10;;
26034;SDS011;13809;48.632;11.576;2024-01-06T23:32:36;5.90;;;5.27;;
26034;SDS011;13809;48.632;11.576;2024-01-06T23:37:39;5.40;;;4.93;;
26034;SDS011;13809;48.632;11.576;2024-01-06T23:42:44;5.50;;;5.00;;
26034;SDS011;13809;48.632;11.576;2024-01-06T23:47:47;5.50;;;5.10;;
26034;SDS011;13809;48.632;11.576;2024-01-06T23:52:51;6.40;;;5.53;;
26034;SDS011;13809;48.632;11.576;2024-01-06T23:57:56;6.03;;;5.43;;
